sensor_id;sensor_type;location;lat;lon;timestamp;pressure;altitude;pressure_sealevel;temperature;humidity
65276;BME280;51875;49.994;14.052;2023-03-04T00:00:46;98702.13;;;-2.45;100.00
65276;BME280;51875;49.994;14.052;2023-03-04T00:02:10;98697.06;;;-2.43;100.00
65276;BME280;51875;49.994;14.052;2023-03-04T00:03:25;98700.47;;;-2.43;100.00
65276;BME280;51875;49.994;14.052;2023-03-04T00:04:41;98693.53;;;-2.47;100.00
65276;BME280;51875;49.994;14.052;2023-03-04T00:05:56;98698.22;;;-2.62;100.00
65276;BME280;51875;49.994;14.052;2023-03-04T00:07:12;98698.59;;;-2.79;100.00
65276;BME280;51875;49.994;14.052;2023-03-04T00:08:30;98689.72;;;-2.90;100.00
65276;BME280;51875;49.994;14.052;2023-03-04T00:09:46;98689.03;;;-2.85;100.00
65276;BME280;51875;49.994;14.052;2023-03-04T00:11:02;98684.84;;;-3.10;100.00
65276;BME280;51875;49.994;14.052;2023-03-04T00:12:17;98684.47;;;-3.22;100.00
65276;BME280;51875;49.994;14.052;2023-03-04T00:13:33;98689.50;;;-3.26;100.00
65276;BME280;51875;49.994;14.052;2023-03-04T00:14:49;98694.69;;;-3.24;100.00
65276;BME280;51875;49.994;14.052;2023-03-04T00:16:04;98692.16;;;-3.22;100.00
65276;BME280;51875;49.994;14.052;2023-03-04T00:17:20;98690.13;;;-3.05;100.00
65276;BME280;51875;49.994;14.052;2023-03-04T00:18:36;98693.34;;;-3.11;100.00
65276;BME280;51875;49.994;14.052;2023-03-04T00:19:52;98684.97;;;-3.07;100.00
65276;BME280;51875;49.994;14.052;2023-03-04T00:21:07;98685.19;;;-3.27;100.00
65276;BME280;51875;49.994;14.052;2023-03-04T00:22:23;98687.38;;;-3.39;100.00
65276;BME280;51875;49.994;14.052;2023-03-04T00:23:39;98681.19;;;-3.46;100.00
65276;BME280;51875;49.994;14.052;2023-03-04T00:24:55;98685.81;;;-3.61;100.00
65276;BME280;51875;49.994;14.052;2023-03-04T00:26:11;98685.16;;;-3.81;100.00
65276;BME280;51875;49.994;14.052;2023-03-04T00:27:27;98687.81;;;-3.78;100.00
65276;BME280;51875;49.994;14.052;2023-03-04T00:28:43;98685.41;;;-3.74;100.00
65276;BME280;51875;49.994;14.052;2023-03-04T00:29:59;98677.72;;;-3.48;100.00
65276;BME280;51875;49.994;14.052;2023-03-04T00:31:14;98679.19;;;-3.82;100.00
65276;BME280;51875;49.994;14.052;2023-03-04T00:32:30;98677.97;;;-3.92;100.00
65276;BME280;51875;49.994;14.052;2023-03-04T00:33:45;98685.22;;;-3.80;100.00
65276;BME280;51875;49.994;14.052;2023-03-04T00:35:01;98676.34;;;-3.64;100.00
65276;BME280;51875;49.994;14.052;2023-03-04T00:36:17;98674.63;;;-3.37;100.00
65276;BME280;51875;49.994;14.052;2023-03-04T00:37:32;98675.97;;;-3.49;100.00
65276;BME280;51875;49.994;14.052;2023-03-04T00:38:48;98673.72;;;-3.39;100.00
65276;BME280;51875;49.994;14.052;2023-03-04T00:40:04;98675.78;;;-3.28;100.00
65276;BME280;51875;49.994;14.052;2023-03-04T00:41:20;98673.22;;;-3.28;100.00
65276;BME280;51875;49.994;14.052;2023-03-04T00:42:36;98671.44;;;-3.30;100.00
65276;BME280;51875;49.994;14.052;2023-03-04T00:43:51;98673.66;;;-3.41;100.00
65276;BME280;51875;49.994;14.052;2023-03-04T00:45:08;98673.75;;;-3.38;100.00
65276;BME280;51875;49.994;14.052;2023-03-04T00:46:24;98672.50;;;-3.23;100.00
65276;BME280;51875;49.994;14.052;2023-03-04T00:47:39;98676.31;;;-3.10;100.00
65276;BME280;51875;49.994;14.052;2023-03-04T00:48:55;98676.63;;;-3.56;100.00
65276;BME280;51875;49.994;14.052;2023-03-04T00:50:11;98672.19;;;-3.60;100.00
65276;BME280;51875;49.994;14.052;2023-03-04T00:51:26;98675.41;;;-3.67;100.00
65276;BME280;51875;49.994;14.052;2023-03-04T00:52:42;98673.00;;;-3.63;100.00
65276;BME280;51875;49.994;14.052;2023-03-04T00:53:57;98674.06;;;-3.56;100.00
65276;BME280;51875;49.994;14.052;2023-03-04T00:55:13;98663.03;;;-3.53;100.00
65276;BME280;51875;49.994;14.052;2023-03-04T00:56:28;98669.88;;;-3.52;100.00
65276;BME280;51875;49.994;14.052;2023-03-04T00:57:44;98672.78;;;-3.69;100.00
65276;BME280;51875;49.994;14.052;2023-03-04T00:59:00;98665.81;;;-3.73;100.00
65276;BME280;51875;49.994;14.052;2023-03-04T01:00:16;98670.78;;;-3.78;100.00
65276;BME280;51875;49.994;14.052;2023-03-04T01:01:32;98673.25;;;-3.81;100.00
65276;BME280;51875;49.994;14.052;2023-03-04T01:02:47;98670.78;;;-3.78;100.00
65276;BME280;51875;49.994;14.052;2023-03-04T01:04:03;98669.41;;;-3.68;100.00
65276;BME280;51875;49.994;14.052;2023-03-04T01:05:19;98666.97;;;-3.91;100.00
65276;BME280;51875;49.994;14.052;2023-03-04T01:06:34;98664.53;;;-3.86;100.00
65276;BME280;51875;49.994;14.052;2023-03-04T01:07:50;98657.22;;;-3.75;100.00
65276;BME280;51875;49.994;14.052;2023-03-04T01:09:06;98660.97;;;-3.65;100.00
65276;BME280;51875;49.994;14.052;2023-03-04T01:10:22;98661.13;;;-3.59;100.00
65276;BME280;51875;49.994;14.052;2023-03-04T01:11:38;98660.31;;;-3.58;100.00
65276;BME280;51875;49.994;14.052;2023-03-04T01:12:54;98655.09;;;-3.61;100.00
65276;BME280;51875;49.994;14.052;2023-03-04T01:14:09;98650.66;;;-3.67;100.00
65276;BME280;51875;49.994;14.052;2023-03-04T01:15:25;98654.44;;;-3.56;100.00
65276;BME280;51875;49.994;14.052;2023-03-04T01:16:40;98649.50;;;-3.49;100.00
65276;BME280;51875;49.994;14.052;2023-03-04T01:17:56;98644.38;;;-3.49;100.00
65276;BME280;51875;49.994;14.052;2023-03-04T01:19:12;98645.53;;;-3.67;100.00
65276;BME280;51875;49.994;14.052;2023-03-04T01:20:27;98640.66;;;-3.59;100.00
65276;BME280;51875;49.994;14.052;2023-03-04T01:21:43;98645.78;;;-3.59;100.00
65276;BME280;51875;49.994;14.052;2023-03-04T01:22:59;98644.66;;;-3.42;100.00
65276;BME280;51875;49.994;14.052;2023-03-04T01:24:15;98638.56;;;-3.45;100.00
65276;BME280;51875;49.994;14.052;2023-03-04T01:25:30;98642.94;;;-3.41;100.00
65276;BME280;51875;49.994;14.052;2023-03-04T01:26:46;98639.47;;;-3.43;100.00
65276;BME280;51875;49.994;14.052;2023-03-04T01:28:02;98640.81;;;-3.55;100.00
65276;BME280;51875;49.994;14.052;2023-03-04T01:29:18;98641.88;;;-3.75;100.00
65276;BME280;51875;49.994;14.052;2023-03-04T01:30:33;98635.53;;;-3.87;100.00
65276;BME280;51875;49.994;14.052;2023-03-04T01:31:49;98637.28;;;-3.86;100.00
65276;BME280;51875;49.994;14.052;2023-03-04T01:33:05;98637.44;;;-3.81;100.00
65276;BME280;51875;49.994;14.052;2023-03-04T01:34:20;98634.91;;;-3.79;100.00
65276;BME280;51875;49.994;14.052;2023-03-04T01:35:36;98639.53;;;-3.95;100.00
65276;BME280;51875;49.994;14.052;2023-03-04T01:36:51;98637.69;;;-3.99;100.00
65276;BME280;51875;49.994;14.052;2023-03-04T01:38:07;98631.69;;;-4.00;100.00
65276;BME280;51875;49.994;14.052;2023-03-04T01:39:23;98633.50;;;-3.97;100.00
65276;BME280;51875;49.994;14.052;2023-03-04T01:40:38;98632.25;;;-4.08;100.00
65276;BME280;51875;49.994;14.052;2023-03-04T01:41:54;98633.19;;;-4.06;100.00
65276;BME280;51875;49.994;14.052;2023-03-04T01:43:16;98632.25;;;-4.08;100.00
65276;BME280;51875;49.994;14.052;2023-03-04T01:44:34;98636.63;;;-4.06;100.00
65276;BME280;51875;49.994;14.052;2023-03-04T01:45:51;98627.03;;;-4.12;100.00
65276;BME280;51875;49.994;14.052;2023-03-04T01:47:08;98628.34;;;-4.24;100.00
65276;BME280;51875;49.994;14.052;2023-03-04T01:48:27;98624.13;;;-4.22;100.00
65276;BME280;51875;49.994;14.052;2023-03-04T01:49:46;98620.84;;;-4.18;100.00
65276;BME280;51875;49.994;14.052;2023-03-04T01:51:04;98621.63;;;-4.21;100.00
65276;BME280;51875;49.994;14.052;2023-03-04T01:52:20;98610.47;;;-4.23;100.00
65276;BME280;51875;49.994;14.052;2023-03-04T01:53:36;98609.34;;;-4.05;100.00
65276;BME280;51875;49.994;14.052;2023-03-04T01:54:52;98608.13;;;-4.17;100.00
65276;BME280;51875;49.994;14.052;2023-03-04T01:56:15;98604.53;;;-4.22;100.00
65276;BME280;51875;49.994;14.052;2023-03-04T01:57:33;98607.97;;;-4.21;100.00
65276;BME280;51875;49.994;14.052;2023-03-04T01:59:25;98611.09;;;-4.30;100.00
65276;BME280;51875;49.994;14.052;2023-03-04T02:00:41;98606.66;;;-4.36;100.00
65276;BME280;51875;49.994;14.052;2023-03-04T02:01:59;98618.50;;;-4.62;100.00
65276;BME280;51875;49.994;14.052;2023-03-04T02:03:16;98607.44;;;-4.61;100.00
65276;BME280;51875;49.994;14.052;2023-03-04T02:04:34;98602.78;;;-4.49;100.00
65276;BME280;51875;49.994;14.052;2023-03-04T02:05:51;98603.72;;;-4.47;100.00
65276;BME280;51875;49.994;14.052;2023-03-04T02:07:08;98606.16;;;-4.50;100.00
65276;BME280;51875;49.994;14.052;2023-03-04T02:08:23;98600.88;;;-4.55;100.00
65276;BME280;51875;49.994;14.052;2023-03-04T02:09:39;98601.69;;;-4.56;100.00
65276;BME280;51875;49.994;14.052;2023-03-04T02:10:55;98599.13;;;-4.56;100.00
65276;BME280;51875;49.994;14.052;2023-03-04T02:12:11;98601.31;;;-4.66;100.00
65276;BME280;51875;49.994;14.052;2023-03-04T02:13:26;98594.09;;;-4.78;100.00
65276;BME280;51875;49.994;14.052;2023-03-04T02:14:42;98589.56;;;-4.86;100.00
65276;BME280;51875;49.994;14.052;2023-03-04T02:15:58;98589.16;;;-4.74;100.00
65276;BME280;51875;49.994;14.052;2023-03-04T02:17:13;98579.97;;;-4.69;100.00
65276;BME280;51875;49.994;14.052;2023-03-04T02:18:29;98593.19;;;-4.80;100.00
65276;BME280;51875;49.994;14.052;2023-03-04T02:19:51;98584.38;;;-4.89;100.00
65276;BME280;51875;49.994;14.052;2023-03-04T02:21:18;98588.38;;;-4.96;100.00
65276;BME280;51875;49.994;14.052;2023-03-04T02:22:39;98582.72;;;-5.11;100.00
65276;BME280;51875;49.994;14.052;2023-03-04T02:24:10;98576.78;;;-4.87;100.00
65276;BME280;51875;49.994;14.052;2023-03-04T02:25:44;98575.50;;;-4.99;100.00
65276;BME280;51875;49.994;14.052;2023-03-04T02:27:02;98573.59;;;-5.04;100.00
65276;BME280;51875;49.994;14.052;2023-03-04T02:28:17;98574.16;;;-4.89;100.00
65276;BME280;51875;49.994;14.052;2023-03-04T02:29:33;98568.59;;;-4.77;100.00
65276;BME280;51875;49.994;14.052;2023-03-04T02:30:49;98572.25;;;-4.94;100.00
65276;BME280;51875;49.994;14.052;2023-03-04T02:32:05;98574.34;;;-5.07;100.00
65276;BME280;51875;49.994;14.052;2023-03-04T02:33:20;98570.06;;;-4.84;100.00
65276;BME280;51875;49.994;14.052;2023-03-04T02:34:37;98565.66;;;-4.88;100.00
65276;BME280;51875;49.994;14.052;2023-03-04T02:35:54;98574.91;;;-4.91;100.00
65276;BME280;51875;49.994;14.052;2023-03-04T02:37:10;98573.31;;;-5.12;100.00
65276;BME280;51875;49.994;14.052;2023-03-04T02:38:26;98572.13;;;-5.22;100.00
65276;BME280;51875;49.994;14.052;2023-03-04T02:39:43;98571.75;;;-5.08;100.00
65276;BME280;51875;49.994;14.052;2023-03-04T02:40:59;98571.97;;;-5.02;100.00
65276;BME280;51875;49.994;14.052;2023-03-04T02:42:15;98567.97;;;-4.96;100.00
65276;BME280;51875;49.994;14.052;2023-03-04T02:43:33;98563.56;;;-5.00;100.00
65276;BME280;51875;49.994;14.052;2023-03-04T02:44:48;98561.44;;;-4.63;100.00
65276;BME280;51875;49.994;14.052;2023-03-04T02:46:04;98560.13;;;-4.51;100.00
65276;BME280;51875;49.994;14.052;2023-03-04T02:47:20;98560.06;;;-4.53;100.00
65276;BME280;51875;49.994;14.052;2023-03-04T02:48:36;98561.19;;;-4.45;100.00
65276;BME280;51875;49.994;14.052;2023-03-04T02:49:51;98557.34;;;-4.58;100.00
65276;BME280;51875;49.994;14.052;2023-03-04T02:51:07;98559.47;;;-4.46;100.00
65276;BME280;51875;49.994;14.052;2023-03-04T02:52:24;98559.97;;;-4.30;100.00
65276;BME280;51875;49.994;14.052;2023-03-04T02:53:40;98557.56;;;-4.26;100.00
65276;BME280;51875;49.994;14.052;2023-03-04T02:54:56;98558.34;;;-4.28;100.00
65276;BME280;51875;49.994;14.052;2023-03-04T02:56:12;98559.97;;;-4.30;100.00
65276;BME280;51875;49.994;14.052;2023-03-04T02:57:27;98559.47;;;-4.46;100.00
65276;BME280;51875;49.994;14.052;2023-03-04T02:58:43;98559.53;;;-4.69;100.00
65276;BME280;51875;49.994;14.052;2023-03-04T02:59:58;98562.38;;;-4.85;100.00
65276;BME280;51875;49.994;14.052;2023-03-04T03:01:14;98560.56;;;-5.12;100.00
65276;BME280;51875;49.994;14.052;2023-03-04T03:02:29;98556.66;;;-5.02;100.00
65276;BME280;51875;49.994;14.052;2023-03-04T03:03:45;98553.06;;;-5.07;100.00
65276;BME280;51875;49.994;14.052;2023-03-04T03:05:01;98559.00;;;-5.08;100.00
65276;BME280;51875;49.994;14.052;2023-03-04T03:06:16;98558.13;;;-5.09;100.00
65276;BME280;51875;49.994;14.052;2023-03-04T03:07:32;98558.94;;;-5.10;100.00
65276;BME280;51875;49.994;14.052;2023-03-04T03:08:49;98555.00;;;-5.25;100.00
65276;BME280;51875;49.994;14.052;2023-03-04T03:10:05;98551.63;;;-5.23;100.00
65276;BME280;51875;49.994;14.052;2023-03-04T03:11:20;98554.72;;;-5.32;100.00
65276;BME280;51875;49.994;14.052;2023-03-04T03:12:36;98556.19;;;-5.39;100.00
65276;BME280;51875;49.994;14.052;2023-03-04T03:13:52;98555.72;;;-5.29;100.00
65276;BME280;51875;49.994;14.052;2023-03-04T03:15:08;98554.94;;;-5.26;100.00
65276;BME280;51875;49.994;14.052;2023-03-04T03:16:23;98551.41;;;-5.53;100.00
65276;BME280;51875;49.994;14.052;2023-03-04T03:17:39;98551.84;;;-5.64;100.00
65276;BME280;51875;49.994;14.052;2023-03-04T03:18:55;98550.13;;;-5.64;100.00
65276;BME280;51875;49.994;14.052;2023-03-04T03:20:12;98546.88;;;-5.37;100.00
65276;BME280;51875;49.994;14.052;2023-03-04T03:21:28;98544.78;;;-5.02;100.00
65276;BME280;51875;49.994;14.052;2023-03-04T03:22:43;98552.53;;;-5.46;100.00
65276;BME280;51875;49.994;14.052;2023-03-04T03:23:59;98550.91;;;-5.44;100.00
65276;BME280;51875;49.994;14.052;2023-03-04T03:25:15;98549.88;;;-5.49;100.00
65276;BME280;51875;49.994;14.052;2023-03-04T03:26:31;98549.91;;;-5.47;100.00
65276;BME280;51875;49.994;14.052;2023-03-04T03:27:47;98553.28;;;-5.48;100.00
65276;BME280;51875;49.994;14.052;2023-03-04T03:29:02;98548.59;;;-5.37;100.00
65276;BME280;51875;49.994;14.052;2023-03-04T03:30:18;98553.09;;;-5.30;100.00
65276;BME280;51875;49.994;14.052;2023-03-04T03:31:33;98551.94;;;-5.39;100.00
65276;BME280;51875;49.994;14.052;2023-03-04T03:32:49;98548.88;;;-5.53;100.00
65276;BME280;51875;49.994;14.052;2023-03-04T03:34:05;98546.59;;;-5.45;100.00
65276;BME280;51875;49.994;14.052;2023-03-04T03:35:20;98545.97;;;-5.39;100.00
65276;BME280;51875;49.994;14.052;2023-03-04T03:36:36;98550.53;;;-5.30;100.00
65276;BME280;51875;49.994;14.052;2023-03-04T03:37:51;98538.78;;;-5.27;100.00
65276;BME280;51875;49.994;14.052;2023-03-04T03:39:07;98539.91;;;-5.18;100.00
65276;BME280;51875;49.994;14.052;2023-03-04T03:40:23;98540.88;;;-5.15;100.00
65276;BME280;51875;49.994;14.052;2023-03-04T03:41:38;98533.50;;;-5.07;100.00
65276;BME280;51875;49.994;14.052;2023-03-04T03:42:54;98534.16;;;-5.13;100.00
65276;BME280;51875;49.994;14.052;2023-03-04T03:44:09;98530.19;;;-5.04;100.00
65276;BME280;51875;49.994;14.052;2023-03-04T03:45:25;98537.50;;;-5.14;100.00
65276;BME280;51875;49.994;14.052;2023-03-04T03:46:40;98534.13;;;-5.14;100.00
65276;BME280;51875;49.994;14.052;2023-03-04T03:47:56;98540.06;;;-5.14;100.00
65276;BME280;51875;49.994;14.052;2023-03-04T03:49:12;98542.88;;;-5.30;100.00
65276;BME280;51875;49.994;14.052;2023-03-04T03:50:27;98540.16;;;-5.35;100.00
65276;BME280;51875;49.994;14.052;2023-03-04T03:51:44;98539.66;;;-5.49;100.00
65276;BME280;51875;49.994;14.052;2023-03-04T03:52:59;98535.34;;;-5.73;100.00
65276;BME280;51875;49.994;14.052;2023-03-04T03:54:15;98535.88;;;-5.59;100.00
65276;BME280;51875;49.994;14.052;2023-03-04T03:55:30;98539.22;;;-5.60;100.00
65276;BME280;51875;49.994;14.052;2023-03-04T03:56:46;98543.25;;;-5.44;100.00
65276;BME280;51875;49.994;14.052;2023-03-04T03:58:02;98543.13;;;-5.47;100.00
65276;BME280;51875;49.994;14.052;2023-03-04T03:59:18;98542.59;;;-5.61;100.00
65276;BME280;51875;49.994;14.052;2023-03-04T04:00:33;98539.72;;;-5.70;100.00
65276;BME280;51875;49.994;14.052;2023-03-04T04:01:49;98544.75;;;-5.49;100.00
65276;BME280;51875;49.994;14.052;2023-03-04T04:03:05;98544.97;;;-5.43;100.00
65276;BME280;51875;49.994;14.052;2023-03-04T04:04:21;98544.50;;;-5.55;100.00
65276;BME280;51875;49.994;14.052;2023-03-04T04:05:37;98529.66;;;-5.43;100.00
65276;BME280;51875;49.994;14.052;2023-03-04T04:06:52;98531.31;;;-5.20;100.00
65276;BME280;51875;49.994;14.052;2023-03-04T04:08:12;98535.03;;;-5.12;100.00
65276;BME280;51875;49.994;14.052;2023-03-04T04:09:29;98535.84;;;-5.13;100.00
65276;BME280;51875;49.994;14.052;2023-03-04T04:10:44;98529.69;;;-5.18;100.00
65276;BME280;51875;49.994;14.052;2023-03-04T04:12:00;98531.66;;;-5.11;100.00
65276;BME280;51875;49.994;14.052;2023-03-04T04:13:15;98532.84;;;-5.01;100.00
65276;BME280;51875;49.994;14.052;2023-03-04T04:14:31;98539.13;;;-4.93;100.00
65276;BME280;51875;49.994;14.052;2023-03-04T04:15:47;98536.28;;;-5.01;100.00
65276;BME280;51875;49.994;14.052;2023-03-04T04:17:02;98540.59;;;-5.22;100.00
65276;BME280;51875;49.994;14.052;2023-03-04T04:18:18;98537.78;;;-5.06;100.00
65276;BME280;51875;49.994;14.052;2023-03-04T04:19:34;98545.34;;;-5.33;100.00
65276;BME280;51875;49.994;14.052;2023-03-04T04:20:51;98540.50;;;-5.48;100.00
65276;BME280;51875;49.994;14.052;2023-03-04T04:22:13;98541.16;;;-5.54;100.00
65276;BME280;51875;49.994;14.052;2023-03-04T04:23:30;98532.28;;;-5.41;100.00
65276;BME280;51875;49.994;14.052;2023-03-04T04:24:46;98540.22;;;-5.33;100.00
65276;BME280;51875;49.994;14.052;2023-03-04T04:26:02;98536.84;;;-5.55;100.00
65276;BME280;51875;49.994;14.052;2023-03-04T04:27:17;98540.22;;;-5.79;100.00
65276;BME280;51875;49.994;14.052;2023-03-04T04:28:33;98537.44;;;-5.85;100.00
65276;BME280;51875;49.994;14.052;2023-03-04T04:29:48;98539.81;;;-5.67;100.00
65276;BME280;51875;49.994;14.052;2023-03-04T04:31:08;98539.34;;;-5.79;100.00
65276;BME280;51875;49.994;14.052;2023-03-04T04:32:23;98539.09;;;-5.64;100.00
65276;BME280;51875;49.994;14.052;2023-03-04T04:33:39;98540.69;;;-5.89;100.00
65276;BME280;51875;49.994;14.052;2023-03-04T04:34:55;98537.03;;;-5.96;100.00
65276;BME280;51875;49.994;14.052;2023-03-04T04:36:14;98535.44;;;-5.71;100.00
65276;BME280;51875;49.994;14.052;2023-03-04T04:37:31;98543.03;;;-5.94;100.00
65276;BME280;51875;49.994;14.052;2023-03-04T04:38:46;98539.34;;;-6.02;100.00
65276;BME280;51875;49.994;14.052;2023-03-04T04:40:03;98539.47;;;-5.99;100.00
65276;BME280;51875;49.994;14.052;2023-03-04T04:41:36;98542.59;;;-5.84;100.00
65276;BME280;51875;49.994;14.052;2023-03-04T04:42:52;98551.00;;;-5.86;100.00
65276;BME280;51875;49.994;14.052;2023-03-04T04:44:08;98537.63;;;-5.81;100.00
65276;BME280;51875;49.994;14.052;2023-03-04T04:45:25;98548.81;;;-5.77;100.00
65276;BME280;51875;49.994;14.052;2023-03-04T04:46:41;98549.81;;;-5.95;100.00
65276;BME280;51875;49.994;14.052;2023-03-04T04:47:57;98544.34;;;-5.83;100.00
65276;BME280;51875;49.994;14.052;2023-03-04T04:49:13;98546.78;;;-5.86;100.00
65276;BME280;51875;49.994;14.052;2023-03-04T04:50:28;98543.13;;;-5.92;100.00
65276;BME280;51875;49.994;14.052;2023-03-04T04:51:44;98544.66;;;-5.73;100.00
65276;BME280;51875;49.994;14.052;2023-03-04T04:53:00;98547.41;;;-5.46;100.00
65276;BME280;51875;49.994;14.052;2023-03-04T04:54:15;98546.69;;;-5.43;100.00
65276;BME280;51875;49.994;14.052;2023-03-04T04:55:33;98550.16;;;-5.41;100.00
65276;BME280;51875;49.994;14.052;2023-03-04T04:56:49;98545.50;;;-5.51;100.00
65276;BME280;51875;49.994;14.052;2023-03-04T04:58:05;98550.59;;;-5.51;100.00
65276;BME280;51875;49.994;14.052;2023-03-04T04:59:21;98550.44;;;-5.56;100.00
65276;BME280;51875;49.994;14.052;2023-03-04T05:00:37;98552.75;;;-5.62;100.00
65276;BME280;51875;49.994;14.052;2023-03-04T05:01:53;98550.25;;;-5.61;100.00
65276;BME280;51875;49.994;14.052;2023-03-04T05:03:08;98549.16;;;-5.45;100.00
65276;BME280;51875;49.994;14.052;2023-03-04T05:04:24;98541.88;;;-5.11;100.00
65276;BME280;51875;49.994;14.052;2023-03-04T05:05:40;98548.72;;;-5.10;100.00
65276;BME280;51875;49.994;14.052;2023-03-04T05:06:55;98546.00;;;-4.90;100.00
65276;BME280;51875;49.994;14.052;2023-03-04T05:08:11;98546.59;;;-4.98;100.00
65276;BME280;51875;49.994;14.052;2023-03-04T05:09:26;98546.66;;;-4.96;100.00
65276;BME280;51875;49.994;14.052;2023-03-04T05:10:42;98550.19;;;-4.92;100.00
65276;BME280;51875;49.994;14.052;2023-03-04T05:11:58;98551.44;;;-5.05;100.00
65276;BME280;51875;49.994;14.052;2023-03-04T05:13:13;98558.78;;;-5.37;100.00
65276;BME280;51875;49.994;14.052;2023-03-04T05:14:29;98561.78;;;-5.25;100.00
65276;BME280;51875;49.994;14.052;2023-03-04T05:15:45;98558.09;;;-5.33;100.00
65276;BME280;51875;49.994;14.052;2023-03-04T05:17:01;98543.50;;;-5.13;100.00
65276;BME280;51875;49.994;14.052;2023-03-04T05:18:16;98559.47;;;-5.19;100.00
65276;BME280;51875;49.994;14.052;2023-03-04T05:19:32;98556.31;;;-5.12;100.00
65276;BME280;51875;49.994;14.052;2023-03-04T05:20:52;98552.56;;;-4.97;100.00
65276;BME280;51875;49.994;14.052;2023-03-04T05:22:07;98556.00;;;-4.97;100.00
65276;BME280;51875;49.994;14.052;2023-03-04T05:23:24;98561.75;;;-5.02;100.00
65276;BME280;51875;49.994;14.052;2023-03-04T05:24:39;98566.19;;;-5.21;100.00
65276;BME280;51875;49.994;14.052;2023-03-04T05:25:55;98568.75;;;-5.44;100.00
65276;BME280;51875;49.994;14.052;2023-03-04T05:27:11;98570.63;;;-5.62;100.00
65276;BME280;51875;49.994;14.052;2023-03-04T05:28:27;98562.53;;;-5.73;100.00
65276;BME280;51875;49.994;14.052;2023-03-04T05:29:42;98567.69;;;-5.72;100.00
65276;BME280;51875;49.994;14.052;2023-03-04T05:31:01;98563.72;;;-5.65;100.00
65276;BME280;51875;49.994;14.052;2023-03-04T05:32:17;98570.91;;;-5.55;100.00
65276;BME280;51875;49.994;14.052;2023-03-04T05:33:33;98570.91;;;-5.55;100.00
65276;BME280;51875;49.994;14.052;2023-03-04T05:34:49;98569.50;;;-5.46;100.00
65276;BME280;51875;49.994;14.052;2023-03-04T05:36:06;98569.63;;;-5.43;100.00
65276;BME280;51875;49.994;14.052;2023-03-04T05:37:22;98571.91;;;-5.51;100.00
65276;BME280;51875;49.994;14.052;2023-03-04T05:38:38;98571.09;;;-5.50;100.00
65276;BME280;51875;49.994;14.052;2023-03-04T05:39:53;98573.78;;;-5.45;100.00
65276;BME280;51875;49.994;14.052;2023-03-04T05:41:09;98581.94;;;-5.56;100.00
65276;BME280;51875;49.994;14.052;2023-03-04T05:42:24;98579.44;;;-5.98;100.00
65276;BME280;51875;49.994;14.052;2023-03-04T05:43:40;98586.19;;;-6.21;100.00
65276;BME280;51875;49.994;14.052;2023-03-04T05:44:57;98583.16;;;-6.32;100.00
65276;BME280;51875;49.994;14.052;2023-03-04T05:46:14;98583.56;;;-6.23;100.00
65276;BME280;51875;49.994;14.052;2023-03-04T05:47:30;98581.78;;;-5.82;100.00
65276;BME280;51875;49.994;14.052;2023-03-04T05:48:45;98578.22;;;-5.85;100.00
65276;BME280;51875;49.994;14.052;2023-03-04T05:50:01;98576.94;;;-5.97;100.00
65276;BME280;51875;49.994;14.052;2023-03-04T05:51:17;98577.69;;;-5.78;100.00
65276;BME280;51875;49.994;14.052;2023-03-04T05:52:33;98582.16;;;-5.72;100.00
65276;BME280;51875;49.994;14.052;2023-03-04T05:53:49;98581.34;;;-5.48;100.00
65276;BME280;51875;49.994;14.052;2023-03-04T05:55:04;98586.44;;;-5.71;100.00
65276;BME280;51875;49.994;14.052;2023-03-04T05:56:20;98588.63;;;-5.35;100.00
65276;BME280;51875;49.994;14.052;2023-03-04T05:57:36;98583.31;;;-5.41;100.00
65276;BME280;51875;49.994;14.052;2023-03-04T05:58:51;98587.09;;;-5.31;100.00
65276;BME280;51875;49.994;14.052;2023-03-04T06:00:09;98583.72;;;-5.30;100.00
65276;BME280;51875;49.994;14.052;2023-03-04T06:01:25;98586.97;;;-5.34;100.00
65276;BME280;51875;49.994;14.052;2023-03-04T06:02:42;98592.81;;;-5.14;100.00
65276;BME280;51875;49.994;14.052;2023-03-04T06:03:58;98590.84;;;-5.21;100.00
65276;BME280;51875;49.994;14.052;2023-03-04T06:05:14;98593.69;;;-5.14;100.00
65276;BME280;51875;49.994;14.052;2023-03-04T06:06:30;98584.47;;;-5.10;100.00
65276;BME280;51875;49.994;14.052;2023-03-04T06:07:46;98589.63;;;-5.08;100.00
65276;BME280;51875;49.994;14.052;2023-03-04T06:09:02;98594.09;;;-5.03;100.00
65276;BME280;51875;49.994;14.052;2023-03-04T06:10:17;98589.19;;;-5.21;100.00
65276;BME280;51875;49.994;14.052;2023-03-04T06:11:36;98588.34;;;-5.43;100.00
65276;BME280;51875;49.994;14.052;2023-03-04T06:12:52;98592.94;;;-5.57;100.00
65276;BME280;51875;49.994;14.052;2023-03-04T06:14:07;98598.69;;;-5.62;100.00
65276;BME280;51875;49.994;14.052;2023-03-04T06:15:23;98596.50;;;-5.74;100.00
65276;BME280;51875;49.994;14.052;2023-03-04T06:16:39;98602.41;;;-5.75;100.00
65276;BME280;51875;49.994;14.052;2023-03-04T06:17:54;98605.41;;;-5.64;100.00
65276;BME280;51875;49.994;14.052;2023-03-04T06:19:10;98600.34;;;-5.63;100.00
65276;BME280;51875;49.994;14.052;2023-03-04T06:20:25;98596.34;;;-5.56;100.00
65276;BME280;51875;49.994;14.052;2023-03-04T06:21:41;98601.16;;;-5.64;100.00
65276;BME280;51875;49.994;14.052;2023-03-04T06:22:57;98597.75;;;-5.64;100.00
65276;BME280;51875;49.994;14.052;2023-03-04T06:24:12;98601.41;;;-5.35;100.00
65276;BME280;51875;49.994;14.052;2023-03-04T06:25:28;98605.06;;;-5.28;100.00
65276;BME280;51875;49.994;14.052;2023-03-04T06:26:43;98604.41;;;-5.22;100.00
65276;BME280;51875;49.994;14.052;2023-03-04T06:28:05;98607.91;;;-5.43;100.00
65276;BME280;51875;49.994;14.052;2023-03-04T06:29:21;98613.63;;;-5.26;100.00
65276;BME280;51875;49.994;14.052;2023-03-04T06:30:37;98611.50;;;-5.15;100.00
65276;BME280;51875;49.994;14.052;2023-03-04T06:31:53;98611.66;;;-5.11;100.00
65276;BME280;51875;49.994;14.052;2023-03-04T06:33:08;98616.41;;;-4.97;100.00
65276;BME280;51875;49.994;14.052;2023-03-04T06:34:24;98610.69;;;-5.37;100.00